sensor_id;sensor_type;location;lat;lon;timestamp;temperature;humidity
69328;DHT22;56472;52.114;5.492;2022-12-18T00:00:10;0.90;72.40
69328;DHT22;56472;52.114;5.492;2022-12-18T00:02:41;0.90;72.30
69328;DHT22;56472;52.114;5.492;2022-12-18T00:05:12;0.90;72.30
69328;DHT22;56472;52.114;5.492;2022-12-18T00:07:41;0.90;72.40
69328;DHT22;56472;52.114;5.492;2022-12-18T00:10:11;0.90;72.40
69328;DHT22;56472;52.114;5.492;2022-12-18T00:12:42;0.90;72.20
69328;DHT22;56472;52.114;5.492;2022-12-18T00:15:09;0.90;71.90
69328;DHT22;56472;52.114;5.492;2022-12-18T00:17:38;1.00;72.10
69328;DHT22;56472;52.114;5.492;2022-12-18T00:20:07;0.90;72.00
69328;DHT22;56472;52.114;5.492;2022-12-18T00:22:37;1.00;72.20
69328;DHT22;56472;52.114;5.492;2022-12-18T00:25:08;1.00;72.00
69328;DHT22;56472;52.114;5.492;2022-12-18T00:27:38;0.90;71.70
69328;DHT22;56472;52.114;5.492;2022-12-18T00:30:08;0.90;71.80
69328;DHT22;56472;52.114;5.492;2022-12-18T00:32:38;0.90;71.90
69328;DHT22;56472;52.114;5.492;2022-12-18T00:35:09;1.00;72.00
69328;DHT22;56472;52.114;5.492;2022-12-18T00:37:38;1.00;71.80
69328;DHT22;56472;52.114;5.492;2022-12-18T00:40:09;1.00;71.70
69328;DHT22;56472;52.114;5.492;2022-12-18T00:42:39;0.90;71.50
69328;DHT22;56472;52.114;5.492;2022-12-18T00:45:27;0.90;71.60
69328;DHT22;56472;52.114;5.492;2022-12-18T00:47:58;0.90;71.70
69328;DHT22;56472;52.114;5.492;2022-12-18T00:50:29;0.90;71.70
69328;DHT22;56472;52.114;5.492;2022-12-18T00:53:00;0.90;71.70
69328;DHT22;56472;52.114;5.492;2022-12-18T00:55:30;0.90;71.80
69328;DHT22;56472;52.114;5.492;2022-12-18T00:57:59;0.90;71.70
69328;DHT22;56472;52.114;5.492;2022-12-18T01:00:30;0.90;71.90
69328;DHT22;56472;52.114;5.492;2022-12-18T01:03:02;0.90;71.80
69328;DHT22;56472;52.114;5.492;2022-12-18T01:05:32;0.90;71.90
69328;DHT22;56472;52.114;5.492;2022-12-18T01:08:02;0.90;71.90
69328;DHT22;56472;52.114;5.492;2022-12-18T01:10:32;0.90;71.90
69328;DHT22;56472;52.114;5.492;2022-12-18T01:13:01;0.90;71.90
69328;DHT22;56472;52.114;5.492;2022-12-18T01:15:30;0.90;71.70
69328;DHT22;56472;52.114;5.492;2022-12-18T01:18:01;0.80;71.60
69328;DHT22;56472;52.114;5.492;2022-12-18T01:20:30;0.80;71.60
69328;DHT22;56472;52.114;5.492;2022-12-18T01:22:58;0.80;71.70
69328;DHT22;56472;52.114;5.492;2022-12-18T01:25:26;0.90;71.70
69328;DHT22;56472;52.114;5.492;2022-12-18T01:27:57;0.80;71.70
69328;DHT22;56472;52.114;5.492;2022-12-18T01:30:29;0.90;71.60
69328;DHT22;56472;52.114;5.492;2022-12-18T01:32:58;0.90;71.60
69328;DHT22;56472;52.114;5.492;2022-12-18T01:35:28;0.90;71.50
69328;DHT22;56472;52.114;5.492;2022-12-18T01:37:58;0.90;71.30
69328;DHT22;56472;52.114;5.492;2022-12-18T01:40:28;0.90;71.30
69328;DHT22;56472;52.114;5.492;2022-12-18T01:42:59;0.90;71.30
69328;DHT22;56472;52.114;5.492;2022-12-18T01:45:32;0.80;71.00
69328;DHT22;56472;52.114;5.492;2022-12-18T01:48:06;0.80;70.80
69328;DHT22;56472;52.114;5.492;2022-12-18T01:50:41;0.80;70.60
69328;DHT22;56472;52.114;5.492;2022-12-18T01:53:15;0.80;70.50
69328;DHT22;56472;52.114;5.492;2022-12-18T01:55:48;0.70;70.40
69328;DHT22;56472;52.114;5.492;2022-12-18T01:58:20;0.70;70.40
69328;DHT22;56472;52.114;5.492;2022-12-18T02:00:51;0.70;70.40
69328;DHT22;56472;52.114;5.492;2022-12-18T02:03:22;0.70;70.40
69328;DHT22;56472;52.114;5.492;2022-12-18T02:14:15;0.60;69.90
69328;DHT22;56472;52.114;5.492;2022-12-18T02:17:20;0.50;69.70
69328;DHT22;56472;52.114;5.492;2022-12-18T02:28:13;0.40;69.80
69328;DHT22;56472;52.114;5.492;2022-12-18T02:30:48;0.40;69.90
69328;DHT22;56472;52.114;5.492;2022-12-18T02:33:20;0.40;69.80
69328;DHT22;56472;52.114;5.492;2022-12-18T02:35:51;0.40;69.80
69328;DHT22;56472;52.114;5.492;2022-12-18T02:38:25;0.40;69.70
69328;DHT22;56472;52.114;5.492;2022-12-18T02:40:59;0.40;69.70
69328;DHT22;56472;52.114;5.492;2022-12-18T02:43:30;0.40;69.60
69328;DHT22;56472;52.114;5.492;2022-12-18T02:56:46;0.20;69.50
69328;DHT22;56472;52.114;5.492;2022-12-18T03:05:17;0.00;69.40
69328;DHT22;56472;52.114;5.492;2022-12-18T03:08:41;0.00;69.50
69328;DHT22;56472;52.114;5.492;2022-12-18T03:11:13;0.00;69.60
69328;DHT22;56472;52.114;5.492;2022-12-18T03:13:49;0.00;69.50
69328;DHT22;56472;52.114;5.492;2022-12-18T03:16:25;-0.10;69.40
69328;DHT22;56472;52.114;5.492;2022-12-18T03:21:29;-0.10;69.40
69328;DHT22;56472;52.114;5.492;2022-12-18T03:24:06;-0.10;69.30
69328;DHT22;56472;52.114;5.492;2022-12-18T03:26:40;-0.10;69.20
69328;DHT22;56472;52.114;5.492;2022-12-18T03:29:31;-0.10;69.20
69328;DHT22;56472;52.114;5.492;2022-12-18T03:32:29;-0.10;69.00
69328;DHT22;56472;52.114;5.492;2022-12-18T03:35:04;-0.10;69.00
69328;DHT22;56472;52.114;5.492;2022-12-18T03:37:37;-0.10;69.00
69328;DHT22;56472;52.114;5.492;2022-12-18T03:40:08;-0.10;69.00
69328;DHT22;56472;52.114;5.492;2022-12-18T03:42:52;-0.10;69.00
69328;DHT22;56472;52.114;5.492;2022-12-18T03:45:35;-0.10;69.00
69328;DHT22;56472;52.114;5.492;2022-12-18T03:48:38;-0.10;68.90
69328;DHT22;56472;52.114;5.492;2022-12-18T03:51:37;-0.10;69.00
69328;DHT22;56472;52.114;5.492;2022-12-18T03:54:09;-0.10;68.90
69328;DHT22;56472;52.114;5.492;2022-12-18T03:56:51;-0.10;68.80
69328;DHT22;56472;52.114;5.492;2022-12-18T03:59:23;-0.10;68.80
69328;DHT22;56472;52.114;5.492;2022-12-18T04:03:15;-0.10;68.70
69328;DHT22;56472;52.114;5.492;2022-12-18T04:06:42;-0.10;68.70
69328;DHT22;56472;52.114;5.492;2022-12-18T04:09:23;-0.10;68.60
69328;DHT22;56472;52.114;5.492;2022-12-18T04:11:59;-0.20;68.50
69328;DHT22;56472;52.114;5.492;2022-12-18T04:14:27;-0.10;68.50
69328;DHT22;56472;52.114;5.492;2022-12-18T04:16:58;-0.20;68.40
69328;DHT22;56472;52.114;5.492;2022-12-18T04:19:31;-0.20;68.40
69328;DHT22;56472;52.114;5.492;2022-12-18T04:22:02;-0.20;68.40
69328;DHT22;56472;52.114;5.492;2022-12-18T04:24:40;-0.20;68.30
69328;DHT22;56472;52.114;5.492;2022-12-18T04:27:20;-0.20;68.20
69328;DHT22;56472;52.114;5.492;2022-12-18T04:29:51;-0.20;68.20
69328;DHT22;56472;52.114;5.492;2022-12-18T04:32:22;-0.30;68.10
69328;DHT22;56472;52.114;5.492;2022-12-18T04:34:52;-0.30;68.10
69328;DHT22;56472;52.114;5.492;2022-12-18T04:37:24;-0.30;68.10
69328;DHT22;56472;52.114;5.492;2022-12-18T04:39:54;-0.30;68.10
69328;DHT22;56472;52.114;5.492;2022-12-18T04:42:31;-0.30;68.00
69328;DHT22;56472;52.114;5.492;2022-12-18T04:45:03;-0.30;68.00
69328;DHT22;56472;52.114;5.492;2022-12-18T04:47:31;-0.30;68.00
69328;DHT22;56472;52.114;5.492;2022-12-18T04:50:02;-0.30;68.00
69328;DHT22;56472;52.114;5.492;2022-12-18T04:52:30;-0.30;67.90
69328;DHT22;56472;52.114;5.492;2022-12-18T04:55:00;-0.30;67.80
69328;DHT22;56472;52.114;5.492;2022-12-18T05:06:21;-0.40;67.60
69328;DHT22;56472;52.114;5.492;2022-12-18T05:27:43;-0.80;68.30
69328;DHT22;56472;52.114;5.492;2022-12-18T05:31:10;-0.80;68.30
69328;DHT22;56472;52.114;5.492;2022-12-18T05:56:12;-0.90;68.20
69328;DHT22;56472;52.114;5.492;2022-12-18T05:59:47;-0.90;68.20
69328;DHT22;56472;52.114;5.492;2022-12-18T06:04:02;-0.90;68.20
69328;DHT22;56472;52.114;5.492;2022-12-18T06:12:40;-0.80;68.10
69328;DHT22;56472;52.114;5.492;2022-12-18T06:16:38;-0.90;68.10
69328;DHT22;56472;52.114;5.492;2022-12-18T06:41:58;-1.00;67.90
69328;DHT22;56472;52.114;5.492;2022-12-18T06:44:48;-1.00;67.90
69328;DHT22;56472;52.114;5.492;2022-12-18T06:47:19;-1.00;67.90
69328;DHT22;56472;52.114;5.492;2022-12-18T06:49:48;-1.00;67.80
69328;DHT22;56472;52.114;5.492;2022-12-18T06:52:16;-1.00;67.80
69328;DHT22;56472;52.114;5.492;2022-12-18T06:54:45;-1.00;67.60
69328;DHT22;56472;52.114;5.492;2022-12-18T06:57:16;-1.00;67.50
69328;DHT22;56472;52.114;5.492;2022-12-18T06:59:45;-0.90;67.50
69328;DHT22;56472;52.114;5.492;2022-12-18T07:02:16;-1.00;67.40
69328;DHT22;56472;52.114;5.492;2022-12-18T07:04:45;-0.90;67.30
69328;DHT22;56472;52.114;5.492;2022-12-18T07:07:14;-0.90;67.30
69328;DHT22;56472;52.114;5.492;2022-12-18T07:09:43;-0.90;67.20
69328;DHT22;56472;52.114;5.492;2022-12-18T07:12:14;-0.90;67.20
69328;DHT22;56472;52.114;5.492;2022-12-18T07:14:43;-0.90;67.20
69328;DHT22;56472;52.114;5.492;2022-12-18T07:17:14;-0.90;67.10
69328;DHT22;56472;52.114;5.492;2022-12-18T07:20:10;-0.90;67.00
69328;DHT22;56472;52.114;5.492;2022-12-18T07:23:44;-0.90;67.00
69328;DHT22;56472;52.114;5.492;2022-12-18T07:27:08;-0.90;67.00
69328;DHT22;56472;52.114;5.492;2022-12-18T07:34:56;-1.00;67.10
69328;DHT22;56472;52.114;5.492;2022-12-18T07:38:09;-1.00;67.20
69328;DHT22;56472;52.114;5.492;2022-12-18T07:41:13;-1.00;67.30
69328;DHT22;56472;52.114;5.492;2022-12-18T07:44:34;-1.00;67.40
69328;DHT22;56472;52.114;5.492;2022-12-18T07:48:14;-1.00;67.40
69328;DHT22;56472;52.114;5.492;2022-12-18T07:52:02;-1.00;68.20
69328;DHT22;56472;52.114;5.492;2022-12-18T07:55:29;-1.00;67.40
69328;DHT22;56472;52.114;5.492;2022-12-18T07:58:23;-1.00;67.60
69328;DHT22;56472;52.114;5.492;2022-12-18T08:04:29;-1.00;67.80
69328;DHT22;56472;52.114;5.492;2022-12-18T08:06:58;-1.00;67.80
69328;DHT22;56472;52.114;5.492;2022-12-18T08:09:27;-0.90;68.00
69328;DHT22;56472;52.114;5.492;2022-12-18T08:11:56;-0.90;68.00
69328;DHT22;56472;52.114;5.492;2022-12-18T08:14:26;-0.80;68.10
69328;DHT22;56472;52.114;5.492;2022-12-18T08:16:55;-0.80;68.20
69328;DHT22;56472;52.114;5.492;2022-12-18T08:19:30;-0.70;68.40
69328;DHT22;56472;52.114;5.492;2022-12-18T08:21:59;-0.60;68.50
69328;DHT22;56472;52.114;5.492;2022-12-18T08:24:29;-0.60;68.50
69328;DHT22;56472;52.114;5.492;2022-12-18T08:26:57;-0.50;68.60
69328;DHT22;56472;52.114;5.492;2022-12-18T08:29:45;-0.50;68.70
69328;DHT22;56472;52.114;5.492;2022-12-18T08:32:14;-0.40;68.80
69328;DHT22;56472;52.114;5.492;2022-12-18T08:34:42;-0.40;68.80
69328;DHT22;56472;52.114;5.492;2022-12-18T08:37:11;-0.30;68.90
69328;DHT22;56472;52.114;5.492;2022-12-18T08:39:40;-0.30;68.80
69328;DHT22;56472;52.114;5.492;2022-12-18T08:42:54;-0.20;68.80
69328;DHT22;56472;52.114;5.492;2022-12-18T08:50:59;-0.10;68.90
69328;DHT22;56472;52.114;5.492;2022-12-18T09:03:37;0.00;69.60
69328;DHT22;56472;52.114;5.492;2022-12-18T09:11:24;0.10;70.10
69328;DHT22;56472;52.114;5.492;2022-12-18T09:19:59;0.30;70.40
69328;DHT22;56472;52.114;5.492;2022-12-18T09:27:12;0.40;70.70
69328;DHT22;56472;52.114;5.492;2022-12-18T09:35:36;0.50;70.80
69328;DHT22;56472;52.114;5.492;2022-12-18T09:39:06;0.60;71.00
69328;DHT22;56472;52.114;5.492;2022-12-18T09:42:37;0.60;70.90
69328;DHT22;56472;52.114;5.492;2022-12-18T09:45:12;0.70;71.10
69328;DHT22;56472;52.114;5.492;2022-12-18T09:47:43;0.80;71.10
69328;DHT22;56472;52.114;5.492;2022-12-18T09:50:35;0.80;71.10
69328;DHT22;56472;52.114;5.492;2022-12-18T09:53:44;0.90;71.10
69328;DHT22;56472;52.114;5.492;2022-12-18T09:57:01;1.00;70.90
69328;DHT22;56472;52.114;5.492;2022-12-18T10:00:22;1.00;70.70
69328;DHT22;56472;52.114;5.492;2022-12-18T10:03:13;1.10;70.90
69328;DHT22;56472;52.114;5.492;2022-12-18T10:06:15;1.10;70.90
69328;DHT22;56472;52.114;5.492;2022-12-18T10:15:24;1.30;70.80
69328;DHT22;56472;52.114;5.492;2022-12-18T10:18:13;1.40;70.80
69328;DHT22;56472;52.114;5.492;2022-12-18T10:20:54;1.40;70.60
69328;DHT22;56472;52.114;5.492;2022-12-18T10:26:25;1.50;70.70
69328;DHT22;56472;52.114;5.492;2022-12-18T10:28:53;1.60;70.60
69328;DHT22;56472;52.114;5.492;2022-12-18T10:31:24;1.70;70.80
69328;DHT22;56472;52.114;5.492;2022-12-18T10:33:54;1.70;70.40
69328;DHT22;56472;52.114;5.492;2022-12-18T10:36:24;1.70;70.20
69328;DHT22;56472;52.114;5.492;2022-12-18T10:38:51;1.80;70.20
69328;DHT22;56472;52.114;5.492;2022-12-18T10:43:48;1.90;70.30
69328;DHT22;56472;52.114;5.492;2022-12-18T10:46:17;1.90;69.90
69328;DHT22;56472;52.114;5.492;2022-12-18T10:56:30;2.10;69.90
69328;DHT22;56472;52.114;5.492;2022-12-18T10:59:08;2.10;69.80
69328;DHT22;56472;52.114;5.492;2022-12-18T11:01:53;2.10;69.70
69328;DHT22;56472;52.114;5.492;2022-12-18T11:04:30;2.20;69.80
69328;DHT22;56472;52.114;5.492;2022-12-18T11:07:07;2.20;69.60
69328;DHT22;56472;52.114;5.492;2022-12-18T11:09:37;2.20;69.60
69328;DHT22;56472;52.114;5.492;2022-12-18T11:12:18;2.30;69.70
69328;DHT22;56472;52.114;5.492;2022-12-18T11:14:50;2.30;69.70
69328;DHT22;56472;52.114;5.492;2022-12-18T11:17:33;2.30;69.40
69328;DHT22;56472;52.114;5.492;2022-12-18T11:20:07;2.40;69.30
69328;DHT22;56472;52.114;5.492;2022-12-18T11:23:01;2.40;69.40
69328;DHT22;56472;52.114;5.492;2022-12-18T11:25:30;2.50;69.40
69328;DHT22;56472;52.114;5.492;2022-12-18T11:31:26;2.60;69.30
69328;DHT22;56472;52.114;5.492;2022-12-18T11:34:09;2.60;69.20
69328;DHT22;56472;52.114;5.492;2022-12-18T11:36:57;2.60;69.00
69328;DHT22;56472;52.114;5.492;2022-12-18T11:39:41;2.60;69.20
69328;DHT22;56472;52.114;5.492;2022-12-18T11:44:48;2.70;69.00
69328;DHT22;56472;52.114;5.492;2022-12-18T11:50:16;2.80;68.90
69328;DHT22;56472;52.114;5.492;2022-12-18T11:52:45;2.80;68.80
69328;DHT22;56472;52.114;5.492;2022-12-18T12:01:05;2.90;68.40
69328;DHT22;56472;52.114;5.492;2022-12-18T12:09:41;3.00;68.10
69328;DHT22;56472;52.114;5.492;2022-12-18T12:17:49;3.10;68.10
69328;DHT22;56472;52.114;5.492;2022-12-18T12:20:42;3.10;68.10
69328;DHT22;56472;52.114;5.492;2022-12-18T12:26:08;3.20;67.90
69328;DHT22;56472;52.114;5.492;2022-12-18T12:39:39;3.20;67.30
69328;DHT22;56472;52.114;5.492;2022-12-18T12:45:25;3.30;67.50
69328;DHT22;56472;52.114;5.492;2022-12-18T12:47:54;3.30;67.60
69328;DHT22;56472;52.114;5.492;2022-12-18T12:50:23;3.30;67.50
69328;DHT22;56472;52.114;5.492;2022-12-18T12:52:54;3.30;67.30
69328;DHT22;56472;52.114;5.492;2022-12-18T12:55:24;3.30;67.00
69328;DHT22;56472;52.114;5.492;2022-12-18T12:58:23;3.30;66.90
69328;DHT22;56472;52.114;5.492;2022-12-18T13:03:58;3.30;66.90
69328;DHT22;56472;52.114;5.492;2022-12-18T13:08:59;3.40;66.50
69328;DHT22;56472;52.114;5.492;2022-12-18T13:11:31;3.40;66.40
69328;DHT22;56472;52.114;5.492;2022-12-18T13:20:14;3.40;66.30
69328;DHT22;56472;52.114;5.492;2022-12-18T13:22:49;3.40;66.30
69328;DHT22;56472;52.114;5.492;2022-12-18T13:25:36;3.50;66.20
69328;DHT22;56472;52.114;5.492;2022-12-18T13:28:05;3.50;66.10
69328;DHT22;56472;52.114;5.492;2022-12-18T13:51:52;3.80;66.00
69328;DHT22;56472;52.114;5.492;2022-12-18T13:54:39;3.80;65.90
69328;DHT22;56472;52.114;5.492;2022-12-18T13:59:57;3.80;65.50
69328;DHT22;56472;52.114;5.492;2022-12-18T14:02:26;3.70;65.30
69328;DHT22;56472;52.114;5.492;2022-12-18T14:04:54;3.70;65.40
69328;DHT22;56472;52.114;5.492;2022-12-18T14:07:24;3.70;65.50
69328;DHT22;56472;52.114;5.492;2022-12-18T14:09:57;3.70;65.40
69328;DHT22;56472;52.114;5.492;2022-12-18T14:12:38;3.70;65.30
69328;DHT22;56472;52.114;5.492;2022-12-18T14:17:56;3.70;65.30
69328;DHT22;56472;52.114;5.492;2022-12-18T14:20:25;3.70;65.20
69328;DHT22;56472;52.114;5.492;2022-12-18T14:22:53;3.70;65.10
69328;DHT22;56472;52.114;5.492;2022-12-18T14:25:24;3.70;65.10
69328;DHT22;56472;52.114;5.492;2022-12-18T14:28:07;3.70;65.10
69328;DHT22;56472;52.114;5.492;2022-12-18T14:30:43;3.70;65.00
69328;DHT22;56472;52.114;5.492;2022-12-18T14:35:57;3.70;64.90
69328;DHT22;56472;52.114;5.492;2022-12-18T14:43:31;3.70;64.80
69328;DHT22;56472;52.114;5.492;2022-12-18T14:46:00;3.70;64.90
69328;DHT22;56472;52.114;5.492;2022-12-18T14:48:41;3.70;64.80
69328;DHT22;56472;52.114;5.492;2022-12-18T14:51:23;3.70;64.60
69328;DHT22;56472;52.114;5.492;2022-12-18T14:54:02;3.70;64.70
69328;DHT22;56472;52.114;5.492;2022-12-18T14:56:35;3.70;64.80
69328;DHT22;56472;52.114;5.492;2022-12-18T14:59:32;3.70;64.70
69328;DHT22;56472;52.114;5.492;2022-12-18T15:02:15;3.70;64.80
69328;DHT22;56472;52.114;5.492;2022-12-18T15:04:45;3.70;64.60
69328;DHT22;56472;52.114;5.492;2022-12-18T15:07:22;3.70;64.40
69328;DHT22;56472;52.114;5.492;2022-12-18T15:10:04;3.60;64.20
69328;DHT22;56472;52.114;5.492;2022-12-18T15:18:01;3.60;64.00
69328;DHT22;56472;52.114;5.492;2022-12-18T15:20:39;3.60;64.00
69328;DHT22;56472;52.114;5.492;2022-12-18T15:23:21;3.50;64.10
69328;DHT22;56472;52.114;5.492;2022-12-18T15:26:05;3.50;64.20
69328;DHT22;56472;52.114;5.492;2022-12-18T15:36:28;3.50;64.40
69328;DHT22;56472;52.114;5.492;2022-12-18T15:39:11;3.50;64.20
69328;DHT22;56472;52.114;5.492;2022-12-18T15:41:43;3.50;64.10
69328;DHT22;56472;52.114;5.492;2022-12-18T15:44:31;3.50;64.20
69328;DHT22;56472;52.114;5.492;2022-12-18T15:47:00;3.50;64.40
69328;DHT22;56472;52.114;5.492;2022-12-18T15:49:31;3.50;64.40
69328;DHT22;56472;52.114;5.492;2022-12-18T15:52:04;3.50;64.20
69328;DHT22;56472;52.114;5.492;2022-12-18T15:54:34;3.50;64.30
69328;DHT22;56472;52.114;5.492;2022-12-18T15:57:21;3.50;64.40
69328;DHT22;56472;52.114;5.492;2022-12-18T15:59:55;3.50;64.30
69328;DHT22;56472;52.114;5.492;2022-12-18T16:02:26;3.50;64.30
69328;DHT22;56472;52.114;5.492;2022-12-18T16:04:55;3.50;64.30
69328;DHT22;56472;52.114;5.492;2022-12-18T16:07:24;3.50;64.20
69328;DHT22;56472;52.114;5.492;2022-12-18T16:09:57;3.50;64.10
69328;DHT22;56472;52.114;5.492;2022-12-18T16:12:29;3.40;63.80
69328;DHT22;56472;52.114;5.492;2022-12-18T16:14:59;3.40;64.00
69328;DHT22;56472;52.114;5.492;2022-12-18T16:17:28;3.40;64.00
69328;DHT22;56472;52.114;5.492;2022-12-18T16:19:55;3.40;64.00
69328;DHT22;56472;52.114;5.492;2022-12-18T16:22:29;3.40;63.70
69328;DHT22;56472;52.114;5.492;2022-12-18T16:24:59;3.40;63.90
69328;DHT22;56472;52.114;5.492;2022-12-18T16:27:27;3.40;63.80
69328;DHT22;56472;52.114;5.492;2022-12-18T16:29:55;3.40;63.90
69328;DHT22;56472;52.114;5.492;2022-12-18T16:32:23;3.40;63.90
69328;DHT22;56472;52.114;5.492;2022-12-18T16:34:50;3.30;63.80
69328;DHT22;56472;52.114;5.492;2022-12-18T16:37:17;3.30;63.90
69328;DHT22;56472;52.114;5.492;2022-12-18T16:39:45;3.30;63.80
69328;DHT22;56472;52.114;5.492;2022-12-18T16:42:15;3.30;63.90
69328;DHT22;56472;52.114;5.492;2022-12-18T16:44:53;3.40;63.90
69328;DHT22;56472;52.114;5.492;2022-12-18T16:47:22;3.30;63.80
69328;DHT22;56472;52.114;5.492;2022-12-18T16:49:50;3.30;64.00
69328;DHT22;56472;52.114;5.492;2022-12-18T16:52:20;3.30;64.00
69328;DHT22;56472;52.114;5.492;2022-12-18T16:54:49;3.30;63.90
69328;DHT22;56472;52.114;5.492;2022-12-18T16:57:19;3.30;64.00
69328;DHT22;56472;52.114;5.492;2022-12-18T16:59:53;3.30;64.00
69328;DHT22;56472;52.114;5.492;2022-12-18T17:02:25;3.30;63.90
69328;DHT22;56472;52.114;5.492;2022-12-18T17:04:56;3.30;63.80
69328;DHT22;56472;52.114;5.492;2022-12-18T17:07:25;3.30;63.80
69328;DHT22;56472;52.114;5.492;2022-12-18T17:10:00;3.30;63.90
69328;DHT22;56472;52.114;5.492;2022-12-18T17:12:33;3.30;64.10
69328;DHT22;56472;52.114;5.492;2022-12-18T17:15:04;3.30;63.80
69328;DHT22;56472;52.114;5.492;2022-12-18T17:17:32;3.30;63.90
69328;DHT22;56472;52.114;5.492;2022-12-18T17:20:00;3.30;63.90
69328;DHT22;56472;52.114;5.492;2022-12-18T17:22:28;3.30;63.90
69328;DHT22;56472;52.114;5.492;2022-12-18T17:24:57;3.30;63.80
69328;DHT22;56472;52.114;5.492;2022-12-18T17:27:53;3.30;63.80
69328;DHT22;56472;52.114;5.492;2022-12-18T17:30:39;3.30;63.90
69328;DHT22;56472;52.114;5.492;2022-12-18T17:33:07;3.40;63.90
69328;DHT22;56472;52.114;5.492;2022-12-18T17:35:35;3.30;64.70
69328;DHT22;56472;52.114;5.492;2022-12-18T17:38:03;3.30;63.80
69328;DHT22;56472;52.114;5.492;2022-12-18T17:40:32;3.30;63.80
69328;DHT22;56472;52.114;5.492;2022-12-18T17:43:01;3.40;63.90
69328;DHT22;56472;52.114;5.492;2022-12-18T17:45:38;3.40;63.80
69328;DHT22;56472;52.114;5.492;2022-12-18T17:48:14;3.40;63.80
69328;DHT22;56472;52.114;5.492;2022-12-18T17:50:47;3.40;63.80
69328;DHT22;56472;52.114;5.492;2022-12-18T17:53:19;3.40;63.80
69328;DHT22;56472;52.114;5.492;2022-12-18T17:55:55;3.40;63.90
69328;DHT22;56472;52.114;5.492;2022-12-18T17:58:24;3.40;63.90
69328;DHT22;56472;52.114;5.492;2022-12-18T18:00:52;3.40;63.70
69328;DHT22;56472;52.114;5.492;2022-12-18T18:03:20;3.40;63.80
69328;DHT22;56472;52.114;5.492;2022-12-18T18:06:00;3.40;63.80
69328;DHT22;56472;52.114;5.492;2022-12-18T18:08:28;3.40;63.90
69328;DHT22;56472;52.114;5.492;2022-12-18T18:11:04;3.40;64.10
69328;DHT22;56472;52.114;5.492;2022-12-18T18:14:18;3.50;64.00
69328;DHT22;56472;52.114;5.492;2022-12-18T18:16:52;3.50;64.00
69328;DHT22;56472;52.114;5.492;2022-12-18T18:19:35;3.40;64.00
69328;DHT22;56472;52.114;5.492;2022-12-18T18:22:10;3.40;64.10
69328;DHT22;56472;52.114;5.492;2022-12-18T18:25:00;3.40;63.90
69328;DHT22;56472;52.114;5.492;2022-12-18T18:27:42;3.40;63.90
69328;DHT22;56472;52.114;5.492;2022-12-18T18:30:16;3.40;64.00
69328;DHT22;56472;52.114;5.492;2022-12-18T18:32:50;3.40;64.10
69328;DHT22;56472;52.114;5.492;2022-12-18T18:35:25;3.50;64.20
69328;DHT22;56472;52.114;5.492;2022-12-18T18:38:15;3.50;64.20
69328;DHT22;56472;52.114;5.492;2022-12-18T18:41:18;3.50;64.20
69328;DHT22;56472;52.114;5.492;2022-12-18T18:43:54;3.50;64.20
69328;DHT22;56472;52.114;5.492;2022-12-18T18:46:27;3.50;64.20
69328;DHT22;56472;52.114;5.492;2022-12-18T18:48:55;3.50;64.20
69328;DHT22;56472;52.114;5.492;2022-12-18T18:51:27;3.50;65.00
69328;DHT22;56472;52.114;5.492;2022-12-18T18:54:02;3.50;64.10
69328;DHT22;56472;52.114;5.492;2022-12-18T18:56:31;3.50;64.20
69328;DHT22;56472;52.114;5.492;2022-12-18T18:59:21;3.60;64.20
69328;DHT22;56472;52.114;5.492;2022-12-18T19:01:59;3.60;64.30
69328;DHT22;56472;52.114;5.492;2022-12-18T19:04:32;3.60;64.30
69328;DHT22;56472;52.114;5.492;2022-12-18T19:07:00;3.60;64.20
69328;DHT22;56472;52.114;5.492;2022-12-18T19:09:29;3.60;64.10
69328;DHT22;56472;52.114;5.492;2022-12-18T19:12:04;3.60;64.20
69328;DHT22;56472;52.114;5.492;2022-12-18T19:14:53;3.60;64.30
69328;DHT22;56472;52.114;5.492;2022-12-18T19:17:24;3.60;64.20
69328;DHT22;56472;52.114;5.492;2022-12-18T19:20:13;3.60;64.10
69328;DHT22;56472;52.114;5.492;2022-12-18T19:22:57;3.60;64.20
69328;DHT22;56472;52.114;5.492;2022-12-18T19:26:05;3.60;64.30
69328;DHT22;56472;52.114;5.492;2022-12-18T19:29:01;3.60;64.30
69328;DHT22;56472;52.114;5.492;2022-12-18T19:31:29;3.70;64.40
69328;DHT22;56472;52.114;5.492;2022-12-18T19:34:19;3.70;64.50
69328;DHT22;56472;52.114;5.492;2022-12-18T19:36:54;3.70;64.40
69328;DHT22;56472;52.114;5.492;2022-12-18T19:39:26;3.70;64.50
69328;DHT22;56472;52.114;5.492;2022-12-18T19:41:54;3.70;64.40
69328;DHT22;56472;52.114;5.492;2022-12-18T19:44:22;3.70;64.40
69328;DHT22;56472;52.114;5.492;2022-12-18T19:46:50;3.70;64.30
69328;DHT22;56472;52.114;5.492;2022-12-18T19:49:17;3.80;64.10
69328;DHT22;56472;52.114;5.492;2022-12-18T19:51:47;3.80;64.20
69328;DHT22;56472;52.114;5.492;2022-12-18T19:54:16;3.80;64.20
69328;DHT22;56472;52.114;5.492;2022-12-18T19:56:44;3.80;64.10
69328;DHT22;56472;52.114;5.492;2022-12-18T19:59:12;3.80;64.10
69328;DHT22;56472;52.114;5.492;2022-12-18T20:01:39;3.90;64.20
69328;DHT22;56472;52.114;5.492;2022-12-18T20:04:07;3.90;64.20
69328;DHT22;56472;52.114;5.492;2022-12-18T20:06:45;3.90;64.30
69328;DHT22;56472;52.114;5.492;2022-12-18T20:09:14;3.90;64.30
69328;DHT22;56472;52.114;5.492;2022-12-18T20:11:42;4.00;64.50
69328;DHT22;56472;52.114;5.492;2022-12-18T20:14:10;3.90;64.60
69328;DHT22;56472;52.114;5.492;2022-12-18T20:16:38;3.90;64.80
69328;DHT22;56472;52.114;5.492;2022-12-18T20:19:06;3.90;65.20
69328;DHT22;56472;52.114;5.492;2022-12-18T20:21:33;3.90;65.60
69328;DHT22;56472;52.114;5.492;2022-12-18T20:24:00;3.90;65.90
69328;DHT22;56472;52.114;5.492;2022-12-18T20:26:28;3.90;66.20
69328;DHT22;56472;52.114;5.492;2022-12-18T20:28:55;3.90;66.60
69328;DHT22;56472;52.114;5.492;2022-12-18T20:31:23;3.90;66.80
69328;DHT22;56472;52.114;5.492;2022-12-18T20:33:51;3.90;67.00
69328;DHT22;56472;52.114;5.492;2022-12-18T20:36:20;3.90;67.20
69328;DHT22;56472;52.114;5.492;2022-12-18T20:38:50;3.90;67.50
69328;DHT22;56472;52.114;5.492;2022-12-18T20:41:25;3.90;67.70
69328;DHT22;56472;52.114;5.492;2022-12-18T20:44:03;3.90;67.90
69328;DHT22;56472;52.114;5.492;2022-12-18T20:46:30;3.90;68.10
69328;DHT22;56472;52.114;5.492;2022-12-18T20:48:57;3.90;68.40
69328;DHT22;56472;52.114;5.492;2022-12-18T20:51:25;3.90;68.70
69328;DHT22;56472;52.114;5.492;2022-12-18T20:53:54;3.90;68.80
69328;DHT22;56472;52.114;5.492;2022-12-18T20:56:22;3.90;69.00
69328;DHT22;56472;52.114;5.492;2022-12-18T20:58:49;3.90;69.20
69328;DHT22;56472;52.114;5.492;2022-12-18T21:01:21;3.90;69.40
69328;DHT22;56472;52.114;5.492;2022-12-18T21:03:49;3.90;69.50
69328;DHT22;56472;52.114;5.492;2022-12-18T21:06:19;3.90;69.60
69328;DHT22;56472;52.114;5.492;2022-12-18T21:08:46;3.90;69.80
69328;DHT22;56472;52.114;5.492;2022-12-18T21:14:16;3.80;70.10
69328;DHT22;56472;52.114;5.492;2022-12-18T21:16:43;3.80;70.30
69328;DHT22;56472;52.114;5.492;2022-12-18T21:19:12;3.80;70.60
69328;DHT22;56472;52.114;5.492;2022-12-18T21:21:39;3.80;70.70
69328;DHT22;56472;52.114;5.492;2022-12-18T21:24:08;3.80;70.80
69328;DHT22;56472;52.114;5.492;2022-12-18T21:26:36;3.80;71.00
69328;DHT22;56472;52.114;5.492;2022-12-18T21:29:13;3.80;71.10